sensor_id;sensor_type;location;lat;lon;timestamp;temperature;humidity
76996;DHT22;65929;49.062;10.338;2023-08-31T00:00:11;12.20;96.50
76996;DHT22;65929;49.062;10.338;2023-08-31T00:01:12;12.20;96.50
76996;DHT22;65929;49.062;10.338;2023-08-31T00:02:14;12.20;96.50
76996;DHT22;65929;49.062;10.338;2023-08-31T00:03:16;12.20;96.50
76996;DHT22;65929;49.062;10.338;2023-08-31T00:04:17;12.20;96.60
76996;DHT22;65929;49.062;10.338;2023-08-31T00:05:18;12.20;96.60
76996;DHT22;65929;49.062;10.338;2023-08-31T00:06:20;12.20;96.70
76996;DHT22;65929;49.062;10.338;2023-08-31T00:07:22;12.20;96.80
76996;DHT22;65929;49.062;10.338;2023-08-31T00:08:23;12.20;96.80
76996;DHT22;65929;49.062;10.338;2023-08-31T00:09:24;12.20;96.90
76996;DHT22;65929;49.062;10.338;2023-08-31T00:10:25;12.20;96.90
76996;DHT22;65929;49.062;10.338;2023-08-31T00:11:26;12.20;97.00
76996;DHT22;65929;49.062;10.338;2023-08-31T00:12:27;12.20;97.00
76996;DHT22;65929;49.062;10.338;2023-08-31T00:13:28;12.20;97.00
76996;DHT22;65929;49.062;10.338;2023-08-31T00:14:40;12.20;97.00
76996;DHT22;65929;49.062;10.338;2023-08-31T00:15:41;12.20;97.00
76996;DHT22;65929;49.062;10.338;2023-08-31T00:16:42;12.20;97.00
76996;DHT22;65929;49.062;10.338;2023-08-31T00:17:43;12.20;96.90
76996;DHT22;65929;49.062;10.338;2023-08-31T00:18:45;12.20;96.90
76996;DHT22;65929;49.062;10.338;2023-08-31T00:19:46;12.20;96.80
76996;DHT22;65929;49.062;10.338;2023-08-31T00:20:47;12.20;96.80
76996;DHT22;65929;49.062;10.338;2023-08-31T00:21:48;12.20;96.80
76996;DHT22;65929;49.062;10.338;2023-08-31T00:22:49;12.20;96.80
76996;DHT22;65929;49.062;10.338;2023-08-31T00:23:50;12.20;96.80
76996;DHT22;65929;49.062;10.338;2023-08-31T00:24:51;12.10;96.90
76996;DHT22;65929;49.062;10.338;2023-08-31T00:25:53;12.10;96.90
76996;DHT22;65929;49.062;10.338;2023-08-31T00:26:54;12.20;96.90
76996;DHT22;65929;49.062;10.338;2023-08-31T00:27:56;12.10;96.90
76996;DHT22;65929;49.062;10.338;2023-08-31T00:28:57;12.20;96.90
76996;DHT22;65929;49.062;10.338;2023-08-31T00:29:59;12.20;96.80
76996;DHT22;65929;49.062;10.338;2023-08-31T00:31:00;12.20;96.80
76996;DHT22;65929;49.062;10.338;2023-08-31T00:32:05;12.20;96.80
76996;DHT22;65929;49.062;10.338;2023-08-31T00:33:05;12.20;96.80
76996;DHT22;65929;49.062;10.338;2023-08-31T00:34:08;12.20;96.70
76996;DHT22;65929;49.062;10.338;2023-08-31T00:35:11;12.20;96.70
76996;DHT22;65929;49.062;10.338;2023-08-31T00:36:12;12.20;96.70
76996;DHT22;65929;49.062;10.338;2023-08-31T00:37:13;12.10;96.80
76996;DHT22;65929;49.062;10.338;2023-08-31T00:38:14;12.20;96.80
76996;DHT22;65929;49.062;10.338;2023-08-31T00:39:15;12.20;96.80
76996;DHT22;65929;49.062;10.338;2023-08-31T00:40:18;12.10;96.80
76996;DHT22;65929;49.062;10.338;2023-08-31T00:41:19;12.10;96.80
76996;DHT22;65929;49.062;10.338;2023-08-31T00:42:20;12.10;96.80
76996;DHT22;65929;49.062;10.338;2023-08-31T00:43:22;12.10;96.80
76996;DHT22;65929;49.062;10.338;2023-08-31T00:44:23;12.10;96.80
76996;DHT22;65929;49.062;10.338;2023-08-31T00:45:25;12.10;96.90
76996;DHT22;65929;49.062;10.338;2023-08-31T00:46:26;12.10;96.90
76996;DHT22;65929;49.062;10.338;2023-08-31T00:47:28;12.10;97.00
76996;DHT22;65929;49.062;10.338;2023-08-31T00:48:29;12.20;96.90
76996;DHT22;65929;49.062;10.338;2023-08-31T00:49:31;12.20;97.00
76996;DHT22;65929;49.062;10.338;2023-08-31T00:50:32;12.20;97.00
76996;DHT22;65929;49.062;10.338;2023-08-31T00:51:33;12.20;96.90
76996;DHT22;65929;49.062;10.338;2023-08-31T00:52:34;12.10;97.00
76996;DHT22;65929;49.062;10.338;2023-08-31T00:53:35;12.10;97.00
76996;DHT22;65929;49.062;10.338;2023-08-31T00:54:37;12.10;97.00
76996;DHT22;65929;49.062;10.338;2023-08-31T00:55:38;12.10;97.00
76996;DHT22;65929;49.062;10.338;2023-08-31T00:56:42;12.10;97.00
76996;DHT22;65929;49.062;10.338;2023-08-31T00:57:43;12.10;96.90
76996;DHT22;65929;49.062;10.338;2023-08-31T00:58:44;12.10;96.90
76996;DHT22;65929;49.062;10.338;2023-08-31T00:59:44;12.10;96.90
76996;DHT22;65929;49.062;10.338;2023-08-31T01:00:53;12.10;96.90
76996;DHT22;65929;49.062;10.338;2023-08-31T01:02:01;12.10;96.80
76996;DHT22;65929;49.062;10.338;2023-08-31T01:03:09;12.10;96.80
76996;DHT22;65929;49.062;10.338;2023-08-31T01:04:20;12.10;96.80
76996;DHT22;65929;49.062;10.338;2023-08-31T01:05:33;12.10;96.80
76996;DHT22;65929;49.062;10.338;2023-08-31T01:06:41;12.10;96.80
76996;DHT22;65929;49.062;10.338;2023-08-31T01:07:54;12.10;96.90
76996;DHT22;65929;49.062;10.338;2023-08-31T01:09:01;12.10;96.90
76996;DHT22;65929;49.062;10.338;2023-08-31T01:10:08;12.10;96.90
76996;DHT22;65929;49.062;10.338;2023-08-31T01:11:19;12.10;96.90
76996;DHT22;65929;49.062;10.338;2023-08-31T01:12:28;12.10;97.00
76996;DHT22;65929;49.062;10.338;2023-08-31T01:13:31;12.10;96.90
76996;DHT22;65929;49.062;10.338;2023-08-31T01:14:37;12.10;96.80
76996;DHT22;65929;49.062;10.338;2023-08-31T01:15:42;12.10;96.70
76996;DHT22;65929;49.062;10.338;2023-08-31T01:16:48;12.10;96.70
76996;DHT22;65929;49.062;10.338;2023-08-31T01:17:52;12.10;96.50
76996;DHT22;65929;49.062;10.338;2023-08-31T01:18:54;12.10;96.50
76996;DHT22;65929;49.062;10.338;2023-08-31T01:19:57;12.10;96.50
76996;DHT22;65929;49.062;10.338;2023-08-31T01:21:08;12.10;96.40
76996;DHT22;65929;49.062;10.338;2023-08-31T01:22:16;12.00;96.40
76996;DHT22;65929;49.062;10.338;2023-08-31T01:23:19;12.00;96.40
76996;DHT22;65929;49.062;10.338;2023-08-31T01:24:23;12.00;96.40
76996;DHT22;65929;49.062;10.338;2023-08-31T01:25:24;12.00;96.50
76996;DHT22;65929;49.062;10.338;2023-08-31T01:26:25;12.00;96.40
76996;DHT22;65929;49.062;10.338;2023-08-31T01:27:26;11.90;96.50
76996;DHT22;65929;49.062;10.338;2023-08-31T01:28:27;11.90;96.60
76996;DHT22;65929;49.062;10.338;2023-08-31T01:29:29;11.90;96.70
76996;DHT22;65929;49.062;10.338;2023-08-31T01:30:30;11.90;96.70
76996;DHT22;65929;49.062;10.338;2023-08-31T01:31:32;11.90;96.80
76996;DHT22;65929;49.062;10.338;2023-08-31T01:32:33;11.90;96.80
76996;DHT22;65929;49.062;10.338;2023-08-31T01:33:34;11.90;96.90
76996;DHT22;65929;49.062;10.338;2023-08-31T01:34:35;11.90;96.80
76996;DHT22;65929;49.062;10.338;2023-08-31T01:35:42;11.90;96.80
76996;DHT22;65929;49.062;10.338;2023-08-31T01:36:47;11.90;96.80
76996;DHT22;65929;49.062;10.338;2023-08-31T01:37:53;11.90;96.80
76996;DHT22;65929;49.062;10.338;2023-08-31T01:39:00;11.90;96.80
76996;DHT22;65929;49.062;10.338;2023-08-31T01:40:09;11.90;96.80
76996;DHT22;65929;49.062;10.338;2023-08-31T01:41:15;11.90;96.80
76996;DHT22;65929;49.062;10.338;2023-08-31T01:42:18;11.90;96.80
76996;DHT22;65929;49.062;10.338;2023-08-31T01:43:20;11.90;96.80
76996;DHT22;65929;49.062;10.338;2023-08-31T01:44:23;11.90;96.80
76996;DHT22;65929;49.062;10.338;2023-08-31T01:45:25;11.80;96.90
76996;DHT22;65929;49.062;10.338;2023-08-31T01:46:26;11.80;96.90
76996;DHT22;65929;49.062;10.338;2023-08-31T01:47:27;11.90;96.80
76996;DHT22;65929;49.062;10.338;2023-08-31T01:48:28;11.90;96.80
76996;DHT22;65929;49.062;10.338;2023-08-31T01:49:36;11.90;96.70
76996;DHT22;65929;49.062;10.338;2023-08-31T01:50:36;11.90;96.70
76996;DHT22;65929;49.062;10.338;2023-08-31T01:51:37;11.90;96.60
76996;DHT22;65929;49.062;10.338;2023-08-31T01:52:38;11.90;96.60
76996;DHT22;65929;49.062;10.338;2023-08-31T01:53:39;11.90;96.40
76996;DHT22;65929;49.062;10.338;2023-08-31T01:54:40;11.90;96.30
76996;DHT22;65929;49.062;10.338;2023-08-31T01:55:42;11.90;95.90
76996;DHT22;65929;49.062;10.338;2023-08-31T01:56:43;11.90;95.50
76996;DHT22;65929;49.062;10.338;2023-08-31T01:57:44;11.90;95.30
76996;DHT22;65929;49.062;10.338;2023-08-31T01:58:45;11.90;95.30
76996;DHT22;65929;49.062;10.338;2023-08-31T01:59:46;11.90;95.20
76996;DHT22;65929;49.062;10.338;2023-08-31T02:00:47;11.90;94.90
76996;DHT22;65929;49.062;10.338;2023-08-31T02:01:48;11.90;94.80
76996;DHT22;65929;49.062;10.338;2023-08-31T02:02:49;11.80;94.60
76996;DHT22;65929;49.062;10.338;2023-08-31T02:03:50;11.80;94.60
76996;DHT22;65929;49.062;10.338;2023-08-31T02:04:51;11.70;94.70
76996;DHT22;65929;49.062;10.338;2023-08-31T02:05:52;11.70;94.80
76996;DHT22;65929;49.062;10.338;2023-08-31T02:06:53;11.70;94.80
76996;DHT22;65929;49.062;10.338;2023-08-31T02:07:54;11.70;94.80
76996;DHT22;65929;49.062;10.338;2023-08-31T02:08:55;11.70;94.90
76996;DHT22;65929;49.062;10.338;2023-08-31T02:09:56;11.70;94.80
76996;DHT22;65929;49.062;10.338;2023-08-31T02:10:58;11.70;94.60
76996;DHT22;65929;49.062;10.338;2023-08-31T02:11:59;11.70;94.60
76996;DHT22;65929;49.062;10.338;2023-08-31T02:13:00;11.60;94.70
76996;DHT22;65929;49.062;10.338;2023-08-31T02:14:00;11.50;94.80
76996;DHT22;65929;49.062;10.338;2023-08-31T02:15:01;11.50;94.60
76996;DHT22;65929;49.062;10.338;2023-08-31T02:16:03;11.50;94.90
76996;DHT22;65929;49.062;10.338;2023-08-31T02:17:04;11.50;95.00
76996;DHT22;65929;49.062;10.338;2023-08-31T02:18:05;11.50;95.10
76996;DHT22;65929;49.062;10.338;2023-08-31T02:19:06;11.40;95.30
76996;DHT22;65929;49.062;10.338;2023-08-31T02:20:07;11.40;95.40
76996;DHT22;65929;49.062;10.338;2023-08-31T02:21:09;11.30;95.50
76996;DHT22;65929;49.062;10.338;2023-08-31T02:22:10;11.30;95.60
76996;DHT22;65929;49.062;10.338;2023-08-31T02:23:10;11.20;95.70
76996;DHT22;65929;49.062;10.338;2023-08-31T02:24:12;11.20;95.90
76996;DHT22;65929;49.062;10.338;2023-08-31T02:25:13;11.10;96.00
76996;DHT22;65929;49.062;10.338;2023-08-31T02:26:16;11.10;96.10
76996;DHT22;65929;49.062;10.338;2023-08-31T02:27:16;11.10;96.10
76996;DHT22;65929;49.062;10.338;2023-08-31T02:28:17;11.10;96.20
76996;DHT22;65929;49.062;10.338;2023-08-31T02:29:20;11.10;96.20
76996;DHT22;65929;49.062;10.338;2023-08-31T02:30:21;11.10;96.20
76996;DHT22;65929;49.062;10.338;2023-08-31T02:31:22;11.00;96.40
76996;DHT22;65929;49.062;10.338;2023-08-31T02:32:23;11.00;96.50
76996;DHT22;65929;49.062;10.338;2023-08-31T02:33:23;11.00;96.60
76996;DHT22;65929;49.062;10.338;2023-08-31T02:34:24;11.00;96.50
76996;DHT22;65929;49.062;10.338;2023-08-31T02:35:25;11.00;96.60
76996;DHT22;65929;49.062;10.338;2023-08-31T02:36:26;11.00;96.60
76996;DHT22;65929;49.062;10.338;2023-08-31T02:37:27;11.00;96.70
76996;DHT22;65929;49.062;10.338;2023-08-31T02:38:28;10.90;96.70
76996;DHT22;65929;49.062;10.338;2023-08-31T02:39:29;10.90;96.70
76996;DHT22;65929;49.062;10.338;2023-08-31T02:40:30;10.90;96.70
76996;DHT22;65929;49.062;10.338;2023-08-31T02:41:32;10.90;96.70
76996;DHT22;65929;49.062;10.338;2023-08-31T02:42:33;10.90;96.70
76996;DHT22;65929;49.062;10.338;2023-08-31T02:43:34;10.90;96.60
76996;DHT22;65929;49.062;10.338;2023-08-31T02:44:35;10.90;96.60
76996;DHT22;65929;49.062;10.338;2023-08-31T02:45:36;10.90;96.50
76996;DHT22;65929;49.062;10.338;2023-08-31T02:46:37;10.90;96.50
76996;DHT22;65929;49.062;10.338;2023-08-31T02:47:38;10.80;96.50
76996;DHT22;65929;49.062;10.338;2023-08-31T02:48:38;10.80;96.50
76996;DHT22;65929;49.062;10.338;2023-08-31T02:49:39;10.80;96.60
76996;DHT22;65929;49.062;10.338;2023-08-31T02:50:40;10.80;96.70
76996;DHT22;65929;49.062;10.338;2023-08-31T02:51:41;10.80;96.70
76996;DHT22;65929;49.062;10.338;2023-08-31T02:52:42;10.80;96.80
76996;DHT22;65929;49.062;10.338;2023-08-31T02:53:43;10.70;96.90
76996;DHT22;65929;49.062;10.338;2023-08-31T02:54:44;10.80;96.90
76996;DHT22;65929;49.062;10.338;2023-08-31T02:55:44;10.70;96.90
76996;DHT22;65929;49.062;10.338;2023-08-31T02:56:47;10.70;97.00
76996;DHT22;65929;49.062;10.338;2023-08-31T02:57:48;10.70;96.90
76996;DHT22;65929;49.062;10.338;2023-08-31T02:58:49;10.70;96.90
76996;DHT22;65929;49.062;10.338;2023-08-31T02:59:50;10.70;97.00
76996;DHT22;65929;49.062;10.338;2023-08-31T03:00:51;10.70;97.00
76996;DHT22;65929;49.062;10.338;2023-08-31T03:01:53;10.70;97.20
76996;DHT22;65929;49.062;10.338;2023-08-31T03:02:55;10.70;97.20
76996;DHT22;65929;49.062;10.338;2023-08-31T03:03:56;10.70;97.30
76996;DHT22;65929;49.062;10.338;2023-08-31T03:04:56;10.70;97.30
76996;DHT22;65929;49.062;10.338;2023-08-31T03:05:57;10.80;97.40
76996;DHT22;65929;49.062;10.338;2023-08-31T03:06:58;10.80;97.40
76996;DHT22;65929;49.062;10.338;2023-08-31T03:07:59;10.80;97.40
76996;DHT22;65929;49.062;10.338;2023-08-31T03:09:00;10.80;97.40
76996;DHT22;65929;49.062;10.338;2023-08-31T03:10:02;10.70;97.30
76996;DHT22;65929;49.062;10.338;2023-08-31T03:11:05;10.70;97.30
76996;DHT22;65929;49.062;10.338;2023-08-31T03:12:07;10.70;97.30
76996;DHT22;65929;49.062;10.338;2023-08-31T03:13:08;10.70;97.40
76996;DHT22;65929;49.062;10.338;2023-08-31T03:14:09;10.60;97.40
76996;DHT22;65929;49.062;10.338;2023-08-31T03:15:10;10.60;97.40
76996;DHT22;65929;49.062;10.338;2023-08-31T03:16:11;10.60;97.40
76996;DHT22;65929;49.062;10.338;2023-08-31T03:17:12;10.60;97.50
76996;DHT22;65929;49.062;10.338;2023-08-31T03:18:13;10.60;97.50
76996;DHT22;65929;49.062;10.338;2023-08-31T03:19:14;10.60;97.50
76996;DHT22;65929;49.062;10.338;2023-08-31T03:20:15;10.60;97.50
76996;DHT22;65929;49.062;10.338;2023-08-31T03:21:16;10.50;97.60
76996;DHT22;65929;49.062;10.338;2023-08-31T03:22:16;10.50;97.60
76996;DHT22;65929;49.062;10.338;2023-08-31T03:23:17;10.50;97.60
76996;DHT22;65929;49.062;10.338;2023-08-31T03:24:18;10.50;97.60
76996;DHT22;65929;49.062;10.338;2023-08-31T03:25:19;10.50;97.60
76996;DHT22;65929;49.062;10.338;2023-08-31T03:26:20;10.50;97.60
76996;DHT22;65929;49.062;10.338;2023-08-31T03:27:22;10.50;97.70
76996;DHT22;65929;49.062;10.338;2023-08-31T03:28:23;10.50;97.70
76996;DHT22;65929;49.062;10.338;2023-08-31T03:29:24;10.50;97.80
76996;DHT22;65929;49.062;10.338;2023-08-31T03:30:25;10.40;97.80
76996;DHT22;65929;49.062;10.338;2023-08-31T03:31:26;10.50;97.90
76996;DHT22;65929;49.062;10.338;2023-08-31T03:32:27;10.50;97.90
76996;DHT22;65929;49.062;10.338;2023-08-31T03:33:28;10.40;97.90
76996;DHT22;65929;49.062;10.338;2023-08-31T03:34:29;10.50;98.00
76996;DHT22;65929;49.062;10.338;2023-08-31T03:35:31;10.40;98.10
76996;DHT22;65929;49.062;10.338;2023-08-31T03:36:32;10.50;98.10
76996;DHT22;65929;49.062;10.338;2023-08-31T03:37:33;10.50;98.10
76996;DHT22;65929;49.062;10.338;2023-08-31T03:38:34;10.50;98.20
76996;DHT22;65929;49.062;10.338;2023-08-31T03:39:38;10.50;98.20
76996;DHT22;65929;49.062;10.338;2023-08-31T03:40:41;10.50;98.20
76996;DHT22;65929;49.062;10.338;2023-08-31T03:41:41;10.50;98.20
76996;DHT22;65929;49.062;10.338;2023-08-31T03:42:44;10.50;98.20
76996;DHT22;65929;49.062;10.338;2023-08-31T03:43:45;10.50;98.20
76996;DHT22;65929;49.062;10.338;2023-08-31T03:44:45;10.50;98.20
76996;DHT22;65929;49.062;10.338;2023-08-31T03:45:46;10.50;98.20
76996;DHT22;65929;49.062;10.338;2023-08-31T03:46:47;10.50;98.20
76996;DHT22;65929;49.062;10.338;2023-08-31T03:47:48;10.50;98.20
76996;DHT22;65929;49.062;10.338;2023-08-31T03:48:49;10.50;98.20
76996;DHT22;65929;49.062;10.338;2023-08-31T03:49:50;10.50;98.20
76996;DHT22;65929;49.062;10.338;2023-08-31T03:50:51;10.50;98.20
76996;DHT22;65929;49.062;10.338;2023-08-31T03:51:52;10.50;98.20
76996;DHT22;65929;49.062;10.338;2023-08-31T03:52:54;10.50;98.20
76996;DHT22;65929;49.062;10.338;2023-08-31T03:53:55;10.50;98.20
76996;DHT22;65929;49.062;10.338;2023-08-31T03:54:57;10.50;98.20
76996;DHT22;65929;49.062;10.338;2023-08-31T03:55:58;10.50;98.20
76996;DHT22;65929;49.062;10.338;2023-08-31T03:56:59;10.50;98.20
76996;DHT22;65929;49.062;10.338;2023-08-31T03:58:01;10.50;98.20
76996;DHT22;65929;49.062;10.338;2023-08-31T03:59:02;10.50;98.20
76996;DHT22;65929;49.062;10.338;2023-08-31T04:00:07;10.40;98.20
76996;DHT22;65929;49.062;10.338;2023-08-31T04:01:13;10.40;98.10
76996;DHT22;65929;49.062;10.338;2023-08-31T04:02:15;10.40;98.10
76996;DHT22;65929;49.062;10.338;2023-08-31T04:03:16;10.40;98.10
76996;DHT22;65929;49.062;10.338;2023-08-31T04:04:16;10.40;98.10
76996;DHT22;65929;49.062;10.338;2023-08-31T04:05:17;10.40;98.10
76996;DHT22;65929;49.062;10.338;2023-08-31T04:06:18;10.30;98.10
76996;DHT22;65929;49.062;10.338;2023-08-31T04:07:19;10.30;98.20
76996;DHT22;65929;49.062;10.338;2023-08-31T04:08:20;10.30;98.20
76996;DHT22;65929;49.062;10.338;2023-08-31T04:09:21;10.30;98.20
76996;DHT22;65929;49.062;10.338;2023-08-31T04:10:22;10.30;98.30
76996;DHT22;65929;49.062;10.338;2023-08-31T04:11:25;10.30;98.30
76996;DHT22;65929;49.062;10.338;2023-08-31T04:12:27;10.30;98.30
76996;DHT22;65929;49.062;10.338;2023-08-31T04:13:31;10.40;98.40
76996;DHT22;65929;49.062;10.338;2023-08-31T04:14:32;10.30;98.40
76996;DHT22;65929;49.062;10.338;2023-08-31T04:15:33;10.30;98.30
76996;DHT22;65929;49.062;10.338;2023-08-31T04:16:35;10.30;98.30
76996;DHT22;65929;49.062;10.338;2023-08-31T04:17:35;10.30;98.30
76996;DHT22;65929;49.062;10.338;2023-08-31T04:18:36;10.30;98.30
76996;DHT22;65929;49.062;10.338;2023-08-31T04:19:37;10.20;98.30
76996;DHT22;65929;49.062;10.338;2023-08-31T04:20:38;10.30;98.40
76996;DHT22;65929;49.062;10.338;2023-08-31T04:21:39;10.20;98.40
76996;DHT22;65929;49.062;10.338;2023-08-31T04:22:40;10.20;98.40
76996;DHT22;65929;49.062;10.338;2023-08-31T04:23:41;10.20;98.40
76996;DHT22;65929;49.062;10.338;2023-08-31T04:24:42;10.20;98.40
76996;DHT22;65929;49.062;10.338;2023-08-31T04:25:43;10.20;98.40
76996;DHT22;65929;49.062;10.338;2023-08-31T04:26:44;10.20;98.40
76996;DHT22;65929;49.062;10.338;2023-08-31T04:27:45;10.20;98.50
76996;DHT22;65929;49.062;10.338;2023-08-31T04:28:47;10.30;98.60
76996;DHT22;65929;49.062;10.338;2023-08-31T04:29:48;10.30;98.60
76996;DHT22;65929;49.062;10.338;2023-08-31T04:30:49;10.30;98.60
76996;DHT22;65929;49.062;10.338;2023-08-31T04:31:50;10.30;98.70
76996;DHT22;65929;49.062;10.338;2023-08-31T04:32:51;10.30;98.70
76996;DHT22;65929;49.062;10.338;2023-08-31T04:33:52;10.40;98.70
76996;DHT22;65929;49.062;10.338;2023-08-31T04:34:56;10.40;98.70
76996;DHT22;65929;49.062;10.338;2023-08-31T04:35:56;10.30;98.80
76996;DHT22;65929;49.062;10.338;2023-08-31T04:36:57;10.30;98.80
76996;DHT22;65929;49.062;10.338;2023-08-31T04:37:58;10.30;98.80
76996;DHT22;65929;49.062;10.338;2023-08-31T04:38:59;10.30;98.80
76996;DHT22;65929;49.062;10.338;2023-08-31T04:40:00;10.30;98.90
76996;DHT22;65929;49.062;10.338;2023-08-31T04:41:01;10.30;98.90
76996;DHT22;65929;49.062;10.338;2023-08-31T04:42:03;10.30;98.90
76996;DHT22;65929;49.062;10.338;2023-08-31T04:43:04;10.30;99.00
76996;DHT22;65929;49.062;10.338;2023-08-31T04:44:06;10.30;99.00
76996;DHT22;65929;49.062;10.338;2023-08-31T04:45:08;10.30;99.00
76996;DHT22;65929;49.062;10.338;2023-08-31T04:46:09;10.20;98.90
76996;DHT22;65929;49.062;10.338;2023-08-31T04:47:10;10.20;98.90
76996;DHT22;65929;49.062;10.338;2023-08-31T04:48:11;10.20;99.00
76996;DHT22;65929;49.062;10.338;2023-08-31T04:49:12;10.20;99.00
76996;DHT22;65929;49.062;10.338;2023-08-31T04:50:13;10.20;99.10
76996;DHT22;65929;49.062;10.338;2023-08-31T04:51:31;10.20;99.10
76996;DHT22;65929;49.062;10.338;2023-08-31T04:52:33;10.20;99.10
76996;DHT22;65929;49.062;10.338;2023-08-31T04:53:34;10.20;99.00
76996;DHT22;65929;49.062;10.338;2023-08-31T04:54:35;10.20;99.10
76996;DHT22;65929;49.062;10.338;2023-08-31T04:55:35;10.20;99.10
76996;DHT22;65929;49.062;10.338;2023-08-31T04:56:36;10.20;99.10
76996;DHT22;65929;49.062;10.338;2023-08-31T04:57:37;10.20;99.10
76996;DHT22;65929;49.062;10.338;2023-08-31T04:58:38;10.20;99.10
76996;DHT22;65929;49.062;10.338;2023-08-31T04:59:40;10.20;99.10
76996;DHT22;65929;49.062;10.338;2023-08-31T05:00:41;10.20;99.10
76996;DHT22;65929;49.062;10.338;2023-08-31T05:01:44;10.20;99.20
76996;DHT22;65929;49.062;10.338;2023-08-31T05:02:45;10.20;99.20
76996;DHT22;65929;49.062;10.338;2023-08-31T05:03:46;10.20;99.20
76996;DHT22;65929;49.062;10.338;2023-08-31T05:04:48;10.30;99.20
76996;DHT22;65929;49.062;10.338;2023-08-31T05:05:49;10.30;99.20
76996;DHT22;65929;49.062;10.338;2023-08-31T05:06:49;10.30;99.20
76996;DHT22;65929;49.062;10.338;2023-08-31T05:07:50;10.30;99.20
76996;DHT22;65929;49.062;10.338;2023-08-31T05:08:51;10.30;99.20
76996;DHT22;65929;49.062;10.338;2023-08-31T05:09:52;10.30;99.20
76996;DHT22;65929;49.062;10.338;2023-08-31T05:10:53;10.30;99.20
76996;DHT22;65929;49.062;10.338;2023-08-31T05:11:54;10.30;99.20
76996;DHT22;65929;49.062;10.338;2023-08-31T05:12:55;10.30;99.10
76996;DHT22;65929;49.062;10.338;2023-08-31T05:13:56;10.30;99.10
76996;DHT22;65929;49.062;10.338;2023-08-31T05:14:58;10.30;99.10
76996;DHT22;65929;49.062;10.338;2023-08-31T05:15:59;10.20;99.00
76996;DHT22;65929;49.062;10.338;2023-08-31T05:17:00;10.30;99.00
76996;DHT22;65929;49.062;10.338;2023-08-31T05:18:01;10.30;99.00
76996;DHT22;65929;49.062;10.338;2023-08-31T05:19:02;10.30;99.00
76996;DHT22;65929;49.062;10.338;2023-08-31T05:20:04;10.20;99.00
76996;DHT22;65929;49.062;10.338;2023-08-31T05:21:06;10.30;99.00
76996;DHT22;65929;49.062;10.338;2023-08-31T05:22:07;10.30;99.00
76996;DHT22;65929;49.062;10.338;2023-08-31T05:23:07;10.30;99.00
76996;DHT22;65929;49.062;10.338;2023-08-31T05:24:08;10.30;99.10
76996;DHT22;65929;49.062;10.338;2023-08-31T05:25:09;10.30;99.00
76996;DHT22;65929;49.062;10.338;2023-08-31T05:26:10;10.40;99.00
76996;DHT22;65929;49.062;10.338;2023-08-31T05:27:12;10.40;99.00
76996;DHT22;65929;49.062;10.338;2023-08-31T05:28:12;10.40;99.00
76996;DHT22;65929;49.062;10.338;2023-08-31T05:29:13;10.40;98.90
76996;DHT22;65929;49.062;10.338;2023-08-31T05:30:16;10.50;98.90
76996;DHT22;65929;49.062;10.338;2023-08-31T05:31:17;10.50;98.80
76996;DHT22;65929;49.062;10.338;2023-08-31T05:32:18;10.50;98.80
76996;DHT22;65929;49.062;10.338;2023-08-31T05:33:19;10.50;98.70
76996;DHT22;65929;49.062;10.338;2023-08-31T05:34:21;10.50;98.60
76996;DHT22;65929;49.062;10.338;2023-08-31T05:35:23;10.50;98.60
76996;DHT22;65929;49.062;10.338;2023-08-31T05:36:24;10.50;98.60
76996;DHT22;65929;49.062;10.338;2023-08-31T05:37:25;10.50;98.50
76996;DHT22;65929;49.062;10.338;2023-08-31T05:38:26;10.50;98.50
76996;DHT22;65929;49.062;10.338;2023-08-31T05:39:27;10.50;98.40
76996;DHT22;65929;49.062;10.338;2023-08-31T05:40:28;10.50;98.40
76996;DHT22;65929;49.062;10.338;2023-08-31T05:41:29;10.50;98.30
76996;DHT22;65929;49.062;10.338;2023-08-31T05:42:29;10.60;98.20
76996;DHT22;65929;49.062;10.338;2023-08-31T05:43:30;10.60;98.20
76996;DHT22;65929;49.062;10.338;2023-08-31T05:44:31;10.60;98.20
76996;DHT22;65929;49.062;10.338;2023-08-31T05:45:34;10.60;98.10
76996;DHT22;65929;49.062;10.338;2023-08-31T05:46:35;10.60;98.10
76996;DHT22;65929;49.062;10.338;2023-08-31T05:47:36;10.60;98.00
76996;DHT22;65929;49.062;10.338;2023-08-31T05:48:37;10.60;98.00
76996;DHT22;65929;49.062;10.338;2023-08-31T05:49:38;10.60;97.90
76996;DHT22;65929;49.062;10.338;2023-08-31T05:50:38;10.60;97.90
76996;DHT22;65929;49.062;10.338;2023-08-31T05:51:40;10.60;97.80
76996;DHT22;65929;49.062;10.338;2023-08-31T05:52:40;10.70;97.80
76996;DHT22;65929;49.062;10.338;2023-08-31T05:53:44;10.70;97.80
76996;DHT22;65929;49.062;10.338;2023-08-31T05:54:45;10.70;97.80
76996;DHT22;65929;49.062;10.338;2023-08-31T05:55:46;10.70;97.80
76996;DHT22;65929;49.062;10.338;2023-08-31T05:56:47;10.70;97.70
76996;DHT22;65929;49.062;10.338;2023-08-31T05:57:49;10.80;97.70
76996;DHT22;65929;49.062;10.338;2023-08-31T05:58:50;10.80;97.60
76996;DHT22;65929;49.062;10.338;2023-08-31T05:59:51;10.80;97.60
76996;DHT22;65929;49.062;10.338;2023-08-31T06:00:53;10.80;97.60
76996;DHT22;65929;49.062;10.338;2023-08-31T06:01:54;10.90;97.50
76996;DHT22;65929;49.062;10.338;2023-08-31T06:02:55;10.90;97.50
76996;DHT22;65929;49.062;10.338;2023-08-31T06:03:55;10.90;97.60
76996;DHT22;65929;49.062;10.338;2023-08-31T06:04:56;11.00;97.60
76996;DHT22;65929;49.062;10.338;2023-08-31T06:05:57;11.00;97.60
76996;DHT22;65929;49.062;10.338;2023-08-31T06:06:58;11.10;97.50
76996;DHT22;65929;49.062;10.338;2023-08-31T06:07:59;11.10;97.50
76996;DHT22;65929;49.062;10.338;2023-08-31T06:09:01;11.10;97.50
76996;DHT22;65929;49.062;10.338;2023-08-31T06:10:02;11.20;97.50
76996;DHT22;65929;49.062;10.338;2023-08-31T06:11:06;11.30;97.40
76996;DHT22;65929;49.062;10.338;2023-08-31T06:12:07;11.30;97.30
76996;DHT22;65929;49.062;10.338;2023-08-31T06:13:08;11.40;97.30
76996;DHT22;65929;49.062;10.338;2023-08-31T06:14:09;11.40;97.20
76996;DHT22;65929;49.062;10.338;2023-08-31T06:15:10;11.50;97.00
76996;DHT22;65929;49.062;10.338;2023-08-31T06:16:13;11.50;96.60
76996;DHT22;65929;49.062;10.338;2023-08-31T06:17:14;11.50;96.20
76996;DHT22;65929;49.062;10.338;2023-08-31T06:18:15;11.50;96.00
76996;DHT22;65929;49.062;10.338;2023-08-31T06:19:16;11.60;96.00
76996;DHT22;65929;49.062;10.338;2023-08-31T06:20:17;11.70;96.00
76996;DHT22;65929;49.062;10.338;2023-08-31T06:21:18;11.70;95.90
76996;DHT22;65929;49.062;10.338;2023-08-31T06:22:19;11.70;95.40
76996;DHT22;65929;49.062;10.338;2023-08-31T06:23:22;11.70;94.80